createdAt,value
2019-04-28T00:01:23.758Z,10.99
2019-04-28T00:03:53.119Z,11.01
2019-04-28T00:06:22.708Z,11.03
2019-04-28T00:08:52.043Z,10.97
2019-04-28T00:11:22.164Z,10.86
2019-04-28T00:13:53.518Z,10.61
2019-04-28T00:16:23.113Z,10.43
2019-04-28T00:18:52.535Z,10.63
2019-04-28T00:21:46.914Z,10.46
2019-04-28T00:24:44.065Z,10.30
2019-04-28T00:27:15.398Z,10.42
2019-04-28T00:29:46.266Z,10.49
2019-04-28T00:32:15.875Z,10.36
2019-04-28T00:34:45.388Z,10.38
2019-04-28T00:37:26.403Z,10.41
2019-04-28T00:39:55.762Z,10.46
2019-04-28T00:42:25.109Z,10.43
2019-04-28T00:44:54.463Z,10.28
2019-04-28T00:47:24.705Z,10.27
2019-04-28T00:49:54.118Z,10.04
2019-04-28T00:52:23.490Z,10.17
2019-04-28T00:54:53.123Z,10.22
2019-04-28T00:57:22.906Z,10.10
2019-04-28T00:59:57.946Z,10.11
2019-04-28T01:02:28.718Z,10.05
2019-04-28T01:04:58.051Z,9.99
2019-04-28T01:07:27.516Z,9.93
2019-04-28T01:09:56.848Z,9.92
2019-04-28T01:12:26.250Z,9.89
2019-04-28T01:14:57.980Z,9.79
2019-04-28T01:17:34.410Z,9.81
2019-04-28T01:20:05.829Z,9.86
2019-04-28T01:22:36.362Z,9.85
2019-04-28T01:25:06.775Z,9.83
2019-04-28T01:27:55.035Z,9.81
2019-04-28T01:30:44.032Z,9.79
2019-04-28T01:33:23.538Z,9.85
2019-04-28T01:35:52.918Z,9.84
2019-04-28T01:38:22.285Z,9.79
2019-04-28T01:40:51.597Z,9.81
2019-04-28T01:43:20.931Z,9.78
2019-04-28T01:45:50.367Z,9.77
2019-04-28T01:48:19.988Z,9.72
2019-04-28T01:50:49.981Z,9.71
2019-04-28T01:53:19.967Z,9.71
2019-04-28T01:55:49.609Z,9.63
2019-04-28T01:58:20.405Z,9.65
2019-04-28T02:00:50.617Z,9.64
2019-04-28T02:03:20.559Z,9.68
2019-04-28T02:05:50.254Z,9.63
2019-04-28T02:08:20.283Z,9.63
2019-04-28T02:10:50.225Z,9.65
2019-04-28T02:13:19.997Z,9.61
2019-04-28T02:15:50.096Z,9.59
2019-04-28T02:18:20.028Z,9.59
2019-04-28T02:20:55.044Z,9.60
2019-04-28T02:23:29.847Z,9.62
2019-04-28T02:25:59.766Z,9.63
2019-04-28T02:28:29.633Z,9.62
2019-04-28T02:31:02.107Z,9.64
2019-04-28T02:33:31.265Z,9.68
2019-04-28T02:36:01.582Z,9.73
2019-04-28T02:38:34.347Z,9.79
2019-04-28T02:41:03.197Z,9.81
2019-04-28T02:43:32.725Z,9.88
2019-04-28T02:46:02.300Z,9.78
2019-04-28T02:48:31.603Z,9.77
2019-04-28T02:51:10.988Z,9.69
2019-04-28T02:53:45.406Z,9.76
2019-04-28T02:56:14.782Z,9.63
2019-04-28T02:58:44.105Z,9.70
2019-04-28T03:01:25.041Z,9.72
2019-04-28T03:03:44.530Z,9.65
2019-04-28T03:06:13.920Z,9.64
2019-04-28T03:08:43.259Z,9.69
2019-04-28T03:11:12.587Z,9.72
2019-04-28T03:13:41.977Z,9.73
2019-04-28T03:16:11.287Z,9.73
2019-04-28T03:18:41.332Z,9.67
2019-04-28T03:21:11.543Z,9.60
2019-04-28T03:23:41.028Z,9.52
2019-04-28T03:26:47.746Z,9.47
2019-04-28T03:29:41.867Z,9.38
2019-04-28T03:32:32.631Z,9.26
2019-04-28T03:34:53.169Z,9.18
2019-04-28T03:37:21.563Z,9.13
2019-04-28T03:39:51.245Z,9.10
2019-04-28T03:42:21.538Z,9.06
2019-04-28T03:44:51.518Z,9.08
2019-04-28T03:47:21.523Z,9.21
2019-04-28T03:49:51.106Z,9.26
2019-04-28T03:52:21.455Z,9.32
2019-04-28T03:54:51.368Z,9.33
2019-04-28T03:57:21.809Z,9.29
2019-04-28T03:59:51.633Z,9.30
2019-04-28T04:02:23.620Z,9.32
2019-04-28T04:04:52.993Z,9.14
2019-04-28T04:07:22.427Z,9.21
2019-04-28T04:10:16.889Z,9.29
2019-04-28T04:13:00.895Z,9.32
2019-04-28T04:15:55.366Z,9.28
2019-04-28T04:18:40.722Z,9.29
2019-04-28T04:21:11.237Z,9.26
2019-04-28T04:23:41.071Z,9.26
2019-04-28T04:26:11.673Z,9.30
2019-04-28T04:28:41.779Z,9.24
2019-04-28T04:31:11.396Z,9.42
2019-04-28T04:33:41.255Z,9.36
2019-04-28T04:36:11.935Z,9.52
2019-04-28T04:38:45.975Z,9.54
2019-04-28T04:41:12.642Z,9.56
2019-04-28T04:43:42.017Z,9.58
2019-04-28T04:46:21.919Z,9.53
2019-04-28T04:48:51.353Z,9.53
2019-04-28T04:51:21.495Z,9.44
2019-04-28T04:53:51.629Z,9.46
2019-04-28T04:56:21.680Z,9.49
2019-04-28T04:58:51.332Z,9.51
2019-04-28T05:01:40.480Z,9.43
2019-04-28T05:04:15.836Z,9.53
2019-04-28T05:06:45.202Z,9.57
2019-04-28T05:09:14.901Z,9.62
2019-04-28T05:11:44.272Z,9.61
2019-04-28T05:14:13.609Z,9.69
2019-04-28T05:16:42.962Z,9.73
2019-04-28T05:19:12.798Z,9.87
2019-04-28T05:21:42.197Z,9.99
2019-04-28T05:24:46.361Z,10.04
2019-04-28T05:27:17.352Z,10.04
2019-04-28T05:29:45.058Z,10.06
2019-04-28T05:32:14.406Z,10.09
2019-04-28T05:34:46.851Z,10.00
2019-04-28T05:37:14.902Z,9.90
2019-04-28T05:39:44.255Z,9.95
2019-04-28T05:42:13.629Z,10.11
2019-04-28T05:44:43.008Z,10.12
2019-04-28T05:47:12.357Z,10.23
2019-04-28T05:50:12.722Z,10.30
2019-04-28T05:53:00.976Z,10.36
2019-04-28T05:55:50.743Z,10.37
2019-04-28T05:58:25.352Z,10.38
2019-04-28T06:01:11.789Z,10.44
2019-04-28T06:03:41.705Z,10.34
2019-04-28T06:06:11.097Z,10.38
2019-04-28T06:09:04.914Z,10.42
2019-04-28T06:11:35.605Z,10.37
2019-04-28T06:14:05.092Z,10.37
2019-04-28T06:16:34.666Z,10.35
2019-04-28T06:19:04.203Z,10.48
2019-04-28T06:21:33.558Z,10.51
2019-04-28T06:24:03.163Z,10.55
2019-04-28T06:26:32.853Z,10.53
2019-04-28T06:29:02.199Z,10.57
2019-04-28T06:31:31.565Z,10.59
2019-04-28T06:34:00.952Z,10.67
2019-04-28T06:36:30.332Z,10.80
2019-04-28T06:39:01.218Z,10.78
2019-04-28T06:41:30.519Z,10.81
2019-04-28T06:44:00.269Z,10.93
2019-04-28T06:46:29.631Z,11.10
2019-04-28T06:48:58.982Z,11.16
2019-04-28T06:51:29.489Z,11.33
2019-04-28T06:53:59.328Z,11.49
2019-04-28T06:56:28.740Z,11.66
2019-04-28T06:58:59.135Z,11.69
2019-04-28T07:01:28.861Z,11.77
2019-04-28T07:03:58.226Z,11.79
2019-04-28T07:06:27.668Z,11.81
2019-04-28T07:08:57.068Z,11.86
2019-04-28T07:11:26.454Z,11.90
2019-04-28T07:13:55.843Z,12.00
2019-04-28T07:16:25.193Z,12.13
2019-04-28T07:18:54.543Z,12.24
2019-04-28T07:21:52.244Z,12.25
2019-04-28T07:24:21.698Z,12.19
2019-04-28T07:26:51.049Z,12.15
2019-04-28T07:29:20.420Z,12.21
2019-04-28T07:31:49.784Z,12.32
2019-04-28T07:34:19.392Z,12.30
2019-04-28T07:36:48.767Z,12.32
2019-04-28T07:39:18.143Z,12.53
2019-04-28T07:41:47.490Z,12.58
2019-04-28T07:44:16.833Z,12.66
2019-04-28T07:46:46.208Z,12.83
2019-04-28T07:49:15.601Z,13.02
2019-04-28T07:51:55.390Z,13.08
2019-04-28T07:54:24.748Z,13.24
2019-04-28T07:56:54.124Z,13.28
2019-04-28T07:59:23.482Z,13.20
2019-04-28T08:01:52.872Z,13.15
2019-04-28T08:04:22.331Z,13.09
2019-04-28T08:06:51.697Z,13.10
2019-04-28T08:09:21.166Z,13.10
2019-04-28T08:11:50.556Z,13.21
2019-04-28T08:14:20.094Z,13.40
2019-04-28T08:16:49.461Z,13.32
2019-04-28T08:19:21.670Z,13.44
2019-04-28T08:21:51.030Z,13.46
2019-04-28T08:24:20.428Z,13.54
2019-04-28T08:26:49.794Z,13.47
2019-04-28T08:29:19.146Z,13.31
2019-04-28T08:32:07.440Z,13.45
2019-04-28T08:34:36.810Z,13.57
2019-04-28T08:37:06.329Z,13.59
2019-04-28T08:39:35.748Z,13.52
2019-04-28T08:42:05.106Z,13.44
2019-04-28T08:44:34.462Z,13.61
2019-04-28T08:47:03.839Z,13.86
2019-04-28T08:49:33.193Z,14.13
2019-04-28T08:52:02.515Z,14.07
2019-04-28T08:54:33.431Z,14.30
2019-04-28T08:57:02.809Z,14.47
2019-04-28T08:59:32.173Z,14.67
2019-04-28T09:02:01.549Z,14.67
2019-04-28T09:04:31.323Z,14.81
2019-04-28T09:07:00.691Z,15.01
2019-04-28T09:09:30.174Z,14.64
2019-04-28T09:11:59.587Z,14.69
2019-04-28T09:14:28.924Z,14.80
2019-04-28T09:16:58.309Z,14.83
2019-04-28T09:19:27.663Z,14.80
2019-04-28T09:21:57.041Z,14.88
2019-04-28T09:24:26.376Z,14.86
2019-04-28T09:26:55.744Z,15.03
2019-04-28T09:29:25.158Z,15.03
2019-04-28T09:31:54.489Z,15.03
2019-04-28T09:34:28.414Z,15.26
2019-04-28T09:36:54.939Z,15.28
2019-04-28T09:39:42.371Z,15.22
2019-04-28T09:42:29.566Z,15.43
2019-04-28T09:45:01.256Z,15.67
2019-04-28T09:47:30.403Z,15.91
2019-04-28T09:49:59.918Z,15.77
2019-04-28T09:52:29.255Z,15.35
2019-04-28T09:54:58.613Z,15.15
2019-04-28T09:57:27.965Z,15.02
2019-04-28T09:59:57.902Z,14.63
2019-04-28T10:02:27.269Z,14.63
2019-04-28T10:04:56.650Z,14.52
2019-04-28T10:07:26.000Z,14.32
2019-04-28T10:09:55.348Z,14.28
2019-04-28T10:12:27.179Z,14.27
2019-04-28T10:14:55.829Z,14.66
2019-04-28T10:19:52.546Z,15.75
2019-04-28T10:22:21.906Z,16.06
2019-04-28T10:24:51.279Z,16.01
2019-04-28T10:27:20.639Z,15.98
2019-04-28T10:29:50.012Z,16.10
2019-04-28T10:32:19.361Z,16.17
2019-04-28T10:34:54.999Z,16.20
2019-04-28T10:37:19.867Z,16.26
2019-04-28T10:39:59.272Z,16.44
2019-04-28T10:42:28.689Z,16.38
2019-04-28T10:44:58.524Z,16.01
2019-04-28T10:47:28.609Z,15.76
2019-04-28T10:49:57.962Z,16.37
2019-04-28T10:52:27.331Z,16.53
2019-04-28T10:54:56.687Z,16.97
2019-04-28T10:57:26.063Z,16.99
2019-04-28T10:59:55.796Z,16.51
2019-04-28T11:02:25.183Z,16.23
2019-04-28T11:05:08.098Z,16.24
2019-04-28T11:07:32.302Z,16.03
2019-04-28T11:10:08.545Z,15.68
2019-04-28T11:12:38.015Z,15.74
2019-04-28T11:15:09.912Z,15.66
2019-04-28T11:17:39.265Z,15.83
2019-04-28T11:20:08.780Z,15.91
2019-04-28T11:22:38.234Z,16.12
2019-04-28T11:25:07.723Z,17.08
2019-04-28T11:27:37.088Z,17.94
2019-04-28T11:30:06.699Z,17.86
2019-04-28T11:32:36.995Z,17.41
2019-04-28T11:35:32.325Z,17.03
2019-04-28T11:38:01.773Z,16.93
2019-04-28T11:40:31.273Z,16.75
2019-04-28T11:43:00.637Z,16.76
2019-04-28T11:45:30.023Z,16.92
2019-04-28T11:47:59.450Z,16.76
2019-04-28T11:50:28.837Z,16.61
2019-04-28T11:52:58.203Z,17.08
2019-04-28T11:55:27.540Z,18.22
2019-04-28T11:57:56.901Z,18.59
2019-04-28T12:00:30.380Z,17.98
2019-04-28T12:02:59.745Z,17.56
2019-04-28T12:05:38.566Z,18.36
2019-04-28T12:08:07.956Z,18.89
2019-04-28T12:10:42.463Z,19.66
2019-04-28T12:13:29.431Z,20.03
2019-04-28T12:16:16.759Z,19.68
2019-04-28T12:19:01.567Z,19.26
2019-04-28T12:21:30.939Z,19.62
2019-04-28T12:24:00.304Z,20.35
2019-04-28T12:26:29.669Z,20.55
2019-04-28T12:29:00.824Z,19.89
2019-04-28T12:31:30.115Z,19.50
2019-04-28T12:33:59.511Z,19.74
2019-04-28T12:36:28.908Z,19.85
2019-04-28T12:38:58.303Z,20.20
2019-04-28T12:41:27.638Z,20.40
2019-04-28T12:43:57.011Z,19.86
2019-04-28T12:46:26.367Z,18.95
2019-04-28T12:48:58.880Z,18.58
2019-04-28T12:51:28.239Z,18.22
2019-04-28T12:54:01.017Z,18.02
2019-04-28T12:56:30.368Z,18.13
2019-04-28T12:59:05.212Z,17.90
2019-04-28T13:01:41.477Z,17.69
2019-04-28T13:04:36.171Z,17.62
2019-04-28T13:07:07.673Z,18.13
2019-04-28T13:09:37.020Z,18.52
2019-04-28T13:12:06.686Z,18.49
2019-04-28T13:14:36.127Z,19.04
2019-04-28T13:17:05.563Z,19.13
2019-04-28T13:19:34.934Z,19.29
2019-04-28T13:22:05.658Z,19.50
2019-04-28T13:24:35.113Z,20.12
2019-04-28T13:27:04.567Z,20.31
2019-04-28T13:29:33.916Z,20.33
2019-04-28T13:32:03.293Z,20.51
2019-04-28T13:34:34.265Z,20.95
2019-04-28T13:37:03.656Z,20.82
2019-04-28T13:39:51.949Z,20.49
2019-04-28T13:42:21.261Z,19.86
2019-04-28T13:44:58.120Z,19.26
2019-04-28T13:47:27.495Z,19.34
2019-04-28T13:50:01.653Z,19.18
2019-04-28T13:52:31.060Z,18.74
2019-04-28T13:55:08.866Z,18.63
2019-04-28T13:57:38.195Z,19.24
2019-04-28T14:00:09.797Z,20.21
2019-04-28T14:03:01.115Z,20.69
2019-04-28T14:05:44.356Z,20.42
2019-04-28T14:08:13.732Z,20.69
2019-04-28T14:10:43.062Z,20.74
2019-04-28T14:13:12.434Z,20.96
2019-04-28T14:15:41.848Z,21.38
2019-04-28T14:18:11.335Z,21.77
2019-04-28T14:20:40.688Z,22.54
2019-04-28T14:23:10.134Z,23.05
2019-04-28T14:25:39.513Z,23.28
2019-04-28T14:28:08.879Z,23.29
2019-04-28T14:30:38.221Z,22.45
2019-04-28T14:33:07.583Z,22.64
2019-04-28T14:35:36.961Z,22.05
2019-04-28T14:38:06.298Z,22.45
2019-04-28T14:40:35.752Z,22.88
2019-04-28T14:43:05.161Z,22.83
2019-04-28T14:45:34.538Z,23.28
2019-04-28T14:48:03.911Z,23.67
2019-04-28T14:50:33.603Z,23.96
2019-04-28T14:53:02.977Z,23.95
2019-04-28T14:55:32.489Z,23.95
2019-04-28T14:58:01.924Z,23.81
2019-04-28T15:00:36.415Z,23.57
2019-04-28T15:03:08.679Z,23.22
2019-04-28T15:06:09.462Z,23.30
2019-04-28T15:08:59.428Z,23.08
2019-04-28T15:11:35.506Z,22.42
2019-04-28T15:14:05.015Z,22.02
2019-04-28T15:16:34.420Z,22.14
2019-04-28T15:19:03.909Z,21.89
2019-04-28T15:21:33.365Z,21.29
2019-04-28T15:24:02.745Z,20.86
2019-04-28T15:26:32.093Z,21.16
2019-04-28T15:29:01.453Z,21.64
2019-04-28T15:31:30.816Z,22.20
2019-04-28T15:36:28.366Z,21.70
2019-04-28T15:38:57.713Z,21.50
2019-04-28T15:41:27.146Z,21.58
2019-04-28T15:43:56.481Z,21.39
2019-04-28T15:46:25.860Z,20.94
2019-04-28T15:48:55.223Z,21.38
2019-04-28T15:51:25.721Z,21.42
2019-04-28T15:53:55.038Z,21.79
2019-04-28T15:56:30.811Z,22.20
2019-04-28T15:59:00.263Z,22.16
2019-04-28T16:01:29.606Z,21.84
2019-04-28T16:03:59.012Z,21.03
2019-04-28T16:06:28.379Z,20.80
2019-04-28T16:08:57.756Z,20.47
2019-04-28T16:11:28.972Z,20.20
2019-04-28T16:13:58.241Z,20.15
2019-04-28T16:16:27.605Z,20.09
2019-04-28T16:18:57.031Z,20.11
2019-04-28T16:21:26.379Z,19.84
2019-04-28T16:23:55.766Z,19.45
2019-04-28T16:26:25.160Z,18.95
2019-04-28T16:28:54.484Z,18.91
2019-04-28T16:31:25.469Z,19.20
2019-04-28T16:33:54.831Z,19.39
2019-04-28T16:36:24.167Z,19.53
2019-04-28T16:38:53.546Z,19.66
2019-04-28T16:41:33.122Z,19.64
2019-04-28T16:44:06.687Z,19.83
2019-04-28T16:46:36.049Z,20.05
2019-04-28T16:49:05.449Z,20.12
2019-04-28T16:51:34.791Z,19.73
2019-04-28T16:54:04.151Z,19.46
2019-04-28T16:56:42.488Z,19.24
2019-04-28T16:59:27.044Z,18.90
2019-04-28T17:02:02.828Z,18.79
2019-04-28T17:04:32.249Z,18.67
2019-04-28T17:07:01.653Z,18.57
2019-04-28T17:09:30.945Z,18.34
2019-04-28T17:12:00.309Z,18.11
2019-04-28T17:14:29.680Z,18.03
2019-04-28T17:16:59.032Z,17.85
2019-04-28T17:19:28.443Z,17.75
2019-04-28T17:21:57.929Z,17.75
2019-04-28T17:24:27.305Z,17.65
2019-04-28T17:26:56.684Z,17.69
2019-04-28T17:29:26.083Z,17.70
2019-04-28T17:31:55.525Z,17.64
2019-04-28T17:34:33.757Z,17.52
2019-04-28T17:37:04.203Z,17.50
2019-04-28T17:39:34.056Z,17.47
2019-04-28T17:42:03.605Z,17.48
2019-04-28T17:44:32.985Z,17.42
2019-04-28T17:47:02.332Z,17.44
2019-04-28T17:49:38.407Z,17.30
2019-04-28T17:52:09.226Z,17.20
2019-04-28T17:54:38.621Z,16.91
2019-04-28T17:57:08.088Z,16.73
2019-04-28T17:59:37.615Z,16.73
2019-04-28T18:02:32.237Z,16.47
2019-04-28T18:05:36.006Z,16.25
2019-04-28T18:08:20.093Z,16.13
2019-04-28T18:10:37.810Z,15.96
2019-04-28T18:13:07.268Z,16.00
2019-04-28T18:15:54.687Z,15.83
2019-04-28T18:18:34.148Z,15.72
2019-04-28T18:21:03.554Z,15.72
2019-04-28T18:23:33.044Z,15.66
2019-04-28T18:26:02.399Z,15.47
2019-04-28T18:28:31.756Z,15.34
2019-04-28T18:31:20.029Z,15.24
2019-04-28T18:34:08.310Z,15.31
2019-04-28T18:36:47.777Z,15.32
2019-04-28T18:39:25.967Z,15.04
2019-04-28T18:42:05.589Z,15.11
2019-04-28T18:44:34.947Z,15.27
2019-04-28T18:47:04.609Z,15.27
2019-04-28T18:49:34.011Z,15.11
2019-04-28T18:52:03.392Z,15.00
2019-04-28T18:54:32.826Z,14.94
2019-04-28T18:57:02.286Z,14.93
2019-04-28T18:59:31.767Z,14.90
2019-04-28T19:02:11.613Z,14.88
2019-04-28T19:04:41.007Z,14.82
2019-04-28T19:07:12.500Z,14.79
2019-04-28T19:09:51.560Z,14.76
2019-04-28T19:12:24.686Z,14.67
2019-04-28T19:15:11.893Z,14.68
2019-04-28T19:17:47.429Z,14.71
2019-04-28T19:20:16.836Z,14.66
2019-04-28T19:22:47.088Z,14.65
2019-04-28T19:25:16.471Z,14.68
2019-04-28T19:27:46.035Z,14.62
2019-04-28T19:30:15.631Z,14.55
2019-04-28T19:32:45.141Z,14.56
2019-04-28T19:35:14.602Z,14.60
2019-04-28T19:37:44.046Z,14.61
2019-04-28T19:40:13.624Z,14.61
2019-04-28T19:42:43.000Z,14.54
2019-04-28T19:45:14.298Z,14.52
2019-04-28T19:47:43.875Z,14.39
2019-04-28T19:50:13.588Z,14.35
2019-04-28T19:52:43.057Z,14.29
2019-04-28T19:55:19.980Z,14.19
2019-04-28T19:58:08.347Z,14.17
2019-04-28T20:00:48.970Z,14.10
2019-04-28T20:03:18.415Z,14.05
2019-04-28T20:05:47.811Z,14.06
2019-04-28T20:08:17.375Z,14.02
2019-04-28T20:10:46.915Z,14.06
2019-04-28T20:13:16.419Z,14.06
2019-04-28T20:15:45.874Z,14.01
2019-04-28T20:18:15.388Z,13.97
2019-04-28T20:20:44.793Z,13.82
2019-04-28T20:23:14.177Z,13.62
2019-04-28T20:25:43.665Z,13.70
2019-04-28T20:28:13.109Z,13.65
2019-04-28T20:30:42.507Z,13.43
2019-04-28T20:33:11.942Z,13.27
2019-04-28T20:35:46.685Z,13.29
2019-04-28T20:38:22.675Z,13.15
2019-04-28T20:41:03.560Z,13.32
2019-04-28T20:43:34.715Z,13.37
2019-04-28T20:46:04.250Z,13.31
2019-04-28T20:48:33.644Z,13.33
2019-04-28T20:51:03.122Z,13.36
2019-04-28T20:53:32.501Z,13.29
2019-04-28T20:56:01.844Z,13.14
2019-04-28T20:58:31.300Z,13.28
2019-04-28T21:01:00.755Z,13.26
2019-04-28T21:03:30.165Z,13.36
2019-04-28T21:05:59.555Z,13.31
2019-04-28T21:08:29.006Z,13.27
2019-04-28T21:10:58.399Z,13.33
2019-04-28T21:13:27.894Z,13.30
2019-04-28T21:15:57.276Z,13.25
2019-04-28T21:18:26.729Z,13.26
2019-04-28T21:20:57.117Z,13.21
2019-04-28T21:23:26.537Z,13.03
2019-04-28T21:25:55.939Z,12.92
2019-04-28T21:28:25.479Z,12.88
2019-04-28T21:30:54.897Z,12.87
2019-04-28T21:33:24.293Z,12.82
2019-04-28T21:35:53.674Z,12.82
2019-04-28T21:38:23.117Z,12.87
2019-04-28T21:40:54.352Z,12.87
2019-04-28T21:43:32.438Z,12.87
2019-04-28T21:46:20.713Z,12.80
2019-04-28T21:48:57.080Z,12.64
2019-04-28T21:51:27.307Z,12.64
2019-04-28T21:53:56.742Z,12.70
2019-04-28T21:56:26.127Z,12.73
2019-04-28T21:58:55.509Z,12.65
2019-04-28T22:01:25.354Z,12.70
2019-04-28T22:03:54.744Z,12.74
2019-04-28T22:06:24.112Z,12.71
2019-04-28T22:08:53.463Z,12.71
2019-04-28T22:11:22.807Z,12.76
2019-04-28T22:13:52.192Z,12.60
2019-04-28T22:16:21.543Z,12.34
2019-04-28T22:18:50.892Z,12.26
2019-04-28T22:21:20.254Z,12.24
2019-04-28T22:24:08.519Z,12.27
2019-04-28T22:26:48.595Z,12.09
2019-04-28T22:29:17.976Z,11.86
2019-04-28T22:31:47.338Z,11.81
2019-04-28T22:34:16.927Z,11.77
2019-04-28T22:36:47.232Z,11.67
2019-04-28T22:39:16.780Z,11.63
2019-04-28T22:41:46.112Z,11.67
2019-04-28T22:44:15.481Z,11.73
2019-04-28T22:46:44.840Z,11.60
2019-04-28T22:49:14.433Z,11.52
2019-04-28T22:51:43.813Z,11.60
2019-04-28T22:54:18.863Z,11.50
2019-04-28T22:56:54.665Z,11.52
2019-04-28T22:59:28.087Z,11.61
2019-04-28T23:02:01.627Z,11.52
2019-04-28T23:04:35.854Z,11.50
2019-04-28T23:07:05.376Z,11.57
2019-04-28T23:09:34.768Z,11.53
2019-04-28T23:12:05.317Z,11.56
2019-04-28T23:14:34.891Z,11.57
2019-04-28T23:17:06.010Z,11.49
2019-04-28T23:19:37.473Z,11.53
2019-04-28T23:22:15.786Z,11.49
2019-04-28T23:24:54.365Z,11.48
2019-04-28T23:27:23.895Z,11.48
2019-04-28T23:29:53.272Z,11.35
2019-04-28T23:32:22.703Z,11.36
2019-04-28T23:34:52.195Z,11.27
2019-04-28T23:37:21.575Z,11.37
2019-04-28T23:39:51.014Z,11.19
2019-04-28T23:42:29.145Z,11.09
2019-04-28T23:44:58.540Z,11.17
2019-04-28T23:47:27.909Z,11.16
2019-04-28T23:49:57.646Z,11.16
2019-04-28T23:52:54.704Z,11.09
2019-04-28T23:55:25.513Z,11.16
2019-04-28T23:57:54.872Z,11.14
